Time;durP1;ratioP1;P1;durP2;ratioP2;P2;SDS_P1;SDS_P2;PMS_P1;PMS_P2;Temp;Humidity;BMP_temperature;BMP_pressure;BME280_temperature;BME280_humidity;BME280_pressure;Samples;Min_cycle;Max_cycle;Signal;HPM_P1;HPM_P2
2021/03/03 00:01:19;;;;;;;3.97;3.63;;;20.40;49.40;;;;;;10409928;28;20566;-27
2021/03/03 00:06:41;;;;;;;4.10;3.70;;;20.40;49.30;;;;;;10410696;28;20215;-28
2021/03/03 00:12:03;;;;;;;4.83;4.30;;;20.40;49.40;;;;;;10417820;28;20707;-27
2021/03/03 00:17:25;;;;;;;3.87;3.57;;;20.30;49.50;;;;;;10418735;28;20711;-26
2021/03/03 00:22:47;;;;;;;4.50;3.80;;;20.30;49.60;;;;;;10418007;28;20188;-28
2021/03/03 00:28:09;;;;;;;4.40;4.00;;;20.30;49.50;;;;;;10417874;28;20213;-29
2021/03/03 00:33:31;;;;;;;5.20;4.60;;;20.40;49.50;;;;;;10408272;28;20222;-27
2021/03/03 00:38:53;;;;;;;4.90;4.37;;;20.30;49.60;;;;;;10417297;28;20279;-30
2021/03/03 00:44:14;;;;;;;4.60;4.13;;;20.20;49.60;;;;;;10417361;28;20201;-31
2021/03/03 00:49:37;;;;;;;4.70;4.03;;;20.20;49.60;;;;;;10416949;28;20217;-28
2021/03/03 00:54:58;;;;;;;4.30;3.90;;;20.20;49.50;;;;;;10416018;28;20278;-29
2021/03/03 01:00:21;;;;;;;4.33;3.93;;;20.20;49.60;;;;;;10414871;28;20209;-31
2021/03/03 01:05:44;;;;;;;4.20;3.80;;;20.20;49.70;;;;;;10416958;28;20735;-31
2021/03/03 01:11:05;;;;;;;4.87;4.07;;;20.20;49.60;;;;;;10407823;28;20252;-30
2021/03/03 01:16:27;;;;;;;5.67;4.03;;;20.20;49.50;;;;;;10416151;28;20225;-27
2021/03/03 01:21:49;;;;;;;4.10;3.70;;;20.20;49.60;;;;;;10415759;28;20203;-28
2021/03/03 01:27:11;;;;;;;5.30;4.30;;;20.10;49.60;;;;;;10415736;28;20685;-28
2021/03/03 01:32:32;;;;;;;4.30;3.70;;;20.10;49.70;;;;;;10415365;28;20278;-30
2021/03/03 01:37:55;;;;;;;4.37;3.97;;;20.10;49.60;;;;;;10415384;28;20229;-33
2021/03/03 01:43:17;;;;;;;4.90;4.10;;;20.20;49.60;;;;;;10414988;28;20615;-28
2021/03/03 01:48:39;;;;;;;5.13;4.27;;;20.10;49.60;;;;;;10414066;28;20275;-27
2021/03/03 01:54:01;;;;;;;5.50;4.37;;;20.00;49.60;;;;;;10414768;28;20218;-32
2021/03/03 01:59:23;;;;;;;5.03;4.53;;;20.10;49.70;;;;;;10414270;28;20222;-29
2021/03/03 02:04:44;;;;;;;4.67;4.27;;;20.10;49.60;;;;;;10414340;28;20201;-31
2021/03/03 02:10:13;;;;;;;5.20;4.47;;;20.10;49.50;;;;;;10413961;28;20205;-30
2021/03/03 02:15:37;;;;;;;4.47;4.07;;;20.00;49.50;;;;;;10413394;28;20219;-27
2021/03/03 02:21:06;;;;;;;5.60;4.30;;;20.00;49.70;;;;;;10412924;28;20207;-29
2021/03/03 02:26:33;;;;;;;4.70;4.00;;;20.00;49.60;;;;;;10413917;28;20217;-31
2021/03/03 02:31:56;;;;;;;5.33;4.70;;;20.00;49.50;;;;;;10412533;28;20366;-31
2021/03/03 02:37:19;;;;;;;4.73;4.33;;;20.00;49.50;;;;;;10403305;28;20604;-29
2021/03/03 02:42:43;;;;;;;5.03;4.37;;;20.00;49.60;;;;;;10412745;28;20226;-29
2021/03/03 02:48:06;;;;;;;4.87;4.37;;;20.00;49.70;;;;;;10410344;28;20762;-28
2021/03/03 02:53:28;;;;;;;4.13;3.73;;;20.00;49.60;;;;;;10410574;28;20217;-28
2021/03/03 02:58:51;;;;;;;5.03;4.50;;;20.00;49.50;;;;;;10411923;28;20564;-30
2021/03/03 03:04:14;;;;;;;4.83;4.33;;;20.00;49.50;;;;;;10412626;28;20210;-28
2021/03/03 03:09:39;;;;;;;5.17;4.40;;;20.00;49.70;;;;;;10402673;28;20221;-29
2021/03/03 03:15:02;;;;;;;4.57;4.17;;;19.90;49.60;;;;;;10410863;28;20651;-28
2021/03/03 03:20:25;;;;;;;4.27;3.70;;;20.00;49.60;;;;;;10410952;28;20194;-30
2021/03/03 03:25:48;;;;;;;4.87;4.37;;;20.00;49.50;;;;;;10410649;28;20258;-32
2021/03/03 03:31:10;;;;;;;4.10;3.70;;;19.90;49.40;;;;;;10410819;28;20206;-29
2021/03/03 03:36:33;;;;;;;4.67;4.23;;;19.90;49.50;;;;;;10435167;23;20317;-26
2021/03/03 03:41:54;;;;;;;4.87;4.37;;;19.90;49.50;;;;;;10448644;28;20189;-26
2021/03/03 03:47:18;;;;;;;4.90;4.33;;;19.90;49.50;;;;;;10431834;28;20694;-27
2021/03/03 03:52:40;;;;;;;4.10;3.70;;;19.90;49.40;;;;;;10409818;28;20221;-26
2021/03/03 03:58:03;;;;;;;4.97;4.03;;;19.90;49.50;;;;;;10409775;28;20684;-26
2021/03/03 04:03:26;;;;;;;4.80;4.20;;;19.80;49.50;;;;;;10409658;28;20248;-26
2021/03/03 04:08:48;;;;;;;4.27;3.87;;;19.90;49.50;;;;;;10409461;28;20225;-27
2021/03/03 04:14:10;;;;;;;4.23;3.83;;;19.90;49.40;;;;;;10409630;28;20222;-27
2021/03/03 04:19:32;;;;;;;4.47;4.07;;;19.90;49.40;;;;;;10409213;28;20292;-26
2021/03/03 04:24:54;;;;;;;5.10;4.50;;;19.90;49.30;;;;;;10409289;28;20573;-27
2021/03/03 04:30:18;;;;;;;4.10;3.47;;;19.90;49.40;;;;;;10409219;28;20203;-27
2021/03/03 04:35:41;;;;;;;4.50;4.10;;;19.90;49.40;;;;;;10409287;28;20356;-26
2021/03/03 04:41:02;;;;;;;4.53;4.13;;;19.90;49.30;;;;;;10409225;28;20201;-26
2021/03/03 04:46:24;;;;;;;4.80;4.30;;;20.00;49.10;;;;;;10400905;28;20223;-27
2021/03/03 04:51:47;;;;;;;4.37;3.83;;;20.00;48.90;;;;;;10409179;28;20216;-27
2021/03/03 04:57:08;;;;;;;3.87;3.47;;;20.10;48.80;;;;;;10415547;28;20680;-27
2021/03/03 05:02:30;;;;;;;4.67;4.20;;;20.10;48.70;;;;;;10416586;28;20249;-26
2021/03/03 05:07:52;;;;;;;4.13;3.73;;;20.20;48.60;;;;;;10417219;28;20220;-27
2021/03/03 05:13:15;;;;;;;5.07;4.03;;;20.10;48.60;;;;;;10415373;28;20216;-27
2021/03/03 05:18:37;;;;;;;4.13;3.73;;;20.10;48.60;;;;;;10416134;28;20214;-26
2021/03/03 05:23:59;;;;;;;4.43;4.03;;;20.10;48.60;;;;;;10415949;28;20205;-26
2021/03/03 05:29:21;;;;;;;4.10;3.70;;;20.20;48.50;;;;;;10415649;28;20210;-26
2021/03/03 05:34:42;;;;;;;4.53;4.13;;;20.20;48.40;;;;;;10415720;28;20243;-25
2021/03/03 05:40:06;;;;;;;4.40;4.00;;;20.30;48.30;;;;;;10415652;28;20213;-26
2021/03/03 05:45:28;;;;;;;4.43;4.03;;;20.30;48.20;;;;;;10415202;28;20704;-26
2021/03/03 05:50:55;;;;;;;4.30;3.90;;;20.30;48.20;;;;;;10414757;28;20212;-26
2021/03/03 05:56:20;;;;;;;4.30;3.90;;;20.30;48.00;;;;;;10412145;28;20224;-26
2021/03/03 06:01:44;;;;;;;4.80;4.13;;;20.40;48.00;;;;;;10414419;28;20203;-26
2021/03/03 06:07:06;;;;;;;4.33;3.73;;;20.40;48.00;;;;;;10413910;28;20295;-26
2021/03/03 06:12:28;;;;;;;4.50;4.10;;;20.40;48.00;;;;;;10413952;28;20593;-26
2021/03/03 06:17:50;;;;;;;4.17;3.60;;;20.30;47.90;;;;;;10413128;28;20245;-26
2021/03/03 06:23:13;;;;;;;4.37;3.97;;;20.40;48.00;;;;;;10413308;28;20198;-26
2021/03/03 06:28:38;;;;;;;4.37;3.97;;;20.40;47.90;;;;;;10413097;28;20247;-25
2021/03/03 06:34:12;;;;;;;4.43;4.03;;;20.40;47.90;;;;;;10414014;28;20224;-26
2021/03/03 06:39:35;;;;;;;5.50;4.20;;;20.40;47.70;;;;;;10404464;28;20236;-27
2021/03/03 06:44:58;;;;;;;5.63;5.03;;;20.40;47.80;;;;;;10413383;28;20200;-25
2021/03/03 06:50:20;;;;;;;15.33;10.40;;;20.40;47.50;;;;;;10413972;28;20202;-25
2021/03/03 06:55:50;;;;;;;15.67;12.57;;;19.80;39.30;;;;;;10428830;28;20227;-24
2021/03/03 07:01:12;;;;;;;15.77;13.67;;;19.50;37.50;;;;;;10407748;28;20221;-24
2021/03/03 07:06:34;;;;;;;16.23;12.97;;;19.30;37.50;;;;;;10404609;28;20217;-26
2021/03/03 07:12:02;;;;;;;16.07;13.30;;;19.10;36.80;;;;;;10407309;28;20688;-26
2021/03/03 07:17:32;;;;;;;15.17;12.63;;;19.00;36.80;;;;;;10406229;28;20226;-24
2021/03/03 07:22:56;;;;;;;15.33;12.57;;;19.00;36.90;;;;;;10410292;28;20859;-25
2021/03/03 07:28:18;;;;;;;14.37;12.07;;;18.90;36.70;;;;;;10410861;28;20222;-25
2021/03/03 07:33:41;;;;;;;16.33;12.87;;;18.90;36.80;;;;;;10412195;28;20225;-26
2021/03/03 07:39:03;;;;;;;15.93;13.43;;;18.90;36.90;;;;;;10412082;28;20596;-24
2021/03/03 07:44:26;;;;;;;14.70;12.93;;;18.90;37.00;;;;;;10411337;28;20197;-26
2021/03/03 07:49:49;;;;;;;16.53;13.13;;;18.90;37.20;;;;;;10411072;28;20723;-25
2021/03/03 07:55:12;;;;;;;14.63;11.70;;;18.80;37.50;;;;;;10410874;28;20583;-23
2021/03/03 08:00:37;;;;;;;15.20;11.93;;;18.90;37.70;;;;;;10372714;28;20695;-26
2021/03/03 08:06:31;;;;;;;15.37;11.37;;;18.90;37.80;;;;;;10410206;28;20723;-24
2021/03/03 08:12:02;;;;;;;16.90;11.63;;;19.00;37.70;;;;;;10409727;28;20296;-29
2021/03/03 08:17:26;;;;;;;14.73;11.07;;;19.00;38.00;;;;;;10409811;28;20210;-22
2021/03/03 08:22:53;;;;;;;15.60;11.93;;;18.90;38.40;;;;;;10409100;28;20241;-27
2021/03/03 08:28:29;;;;;;;18.87;12.10;;;19.00;38.30;;;;;;10410619;28;20243;-24
2021/03/03 08:34:02;;;;;;;14.50;10.90;;;19.10;37.90;;;;;;10450748;28;20220;-25
2021/03/03 08:39:33;;;;;;;14.60;11.10;;;19.40;38.10;;;;;;10416296;28;20723;-24
2021/03/03 08:45:04;;;;;;;13.77;10.93;;;19.70;37.60;;;;;;10415169;28;20201;-24
2021/03/03 08:50:38;;;;;;;14.97;10.97;;;20.00;37.20;;;;;;10415541;28;20193;-26
2021/03/03 08:56:34;;;;;;;15.13;10.03;;;20.20;37.00;;;;;;10416135;28;20280;-24
2021/03/03 09:02:02;;;;;;;13.87;9.87;;;20.70;36.50;;;;;;10415918;28;20286;-25
2021/03/03 09:07:25;;;;;;;12.23;9.37;;;21.00;36.00;;;;;;10415125;28;20608;-25
2021/03/03 09:12:47;;;;;;;10.87;9.00;;;21.10;36.30;;;;;;10407523;28;20214;-25
2021/03/03 09:18:18;;;;;;;13.60;9.37;;;21.00;36.90;;;;;;10414658;28;20246;-24
2021/03/03 09:23:40;;;;;;;10.77;8.00;;;22.20;36.40;;;;;;10415395;28;20604;-26
2021/03/03 09:29:03;;;;;;;9.93;8.10;;;22.20;35.00;;;;;;10416447;28;20218;-26
2021/03/03 09:34:25;;;;;;;10.67;8.33;;;21.10;37.60;;;;;;10414711;28;20659;-24
2021/03/03 09:39:58;;;;;;;13.90;8.37;;;20.70;39.10;;;;;;10413004;28;20225;-26
2021/03/03 09:45:21;;;;;;;9.00;7.07;;;20.40;39.90;;;;;;10413982;28;20201;-25
2021/03/03 09:50:43;;;;;;;9.90;6.93;;;20.30;40.60;;;;;;10374142;28;20245;-25
2021/03/03 09:56:05;;;;;;;9.13;6.23;;;20.20;40.90;;;;;;10372248;28;20220;-23
2021/03/03 10:01:28;;;;;;;10.83;7.30;;;20.20;41.50;;;;;;10372734;28;20194;-23
2021/03/03 10:06:50;;;;;;;8.17;6.30;;;20.10;41.70;;;;;;10407875;28;20267;-24
2021/03/03 10:12:13;;;;;;;8.03;6.87;;;20.10;42.20;;;;;;10413771;28;20697;-25
2021/03/03 10:17:41;;;;;;;6.97;6.17;;;20.10;42.00;;;;;;10413784;28;20215;-24
2021/03/03 10:23:08;;;;;;;6.53;5.33;;;20.20;42.80;;;;;;10412408;28;20672;-24
2021/03/03 10:28:30;;;;;;;9.77;6.93;;;20.20;43.30;;;;;;10412953;28;20232;-25
2021/03/03 10:33:53;;;;;;;11.63;6.43;;;20.10;42.50;;;;;;10412796;28;20222;-25
2021/03/03 10:39:14;;;;;;;9.23;6.17;;;20.00;43.50;;;;;;10408044;28;20233;-25
2021/03/03 10:44:40;;;;;;;8.63;5.53;;;20.10;43.60;;;;;;10395095;28;20257;-25
2021/03/03 10:50:04;;;;;;;8.87;5.60;;;20.20;43.50;;;;;;10408299;28;20225;-22
2021/03/03 10:55:32;;;;;;;9.50;6.63;;;20.20;43.20;;;;;;10413026;28;20229;-25
2021/03/03 11:01:02;;;;;;;10.47;7.60;;;20.00;42.80;;;;;;10370627;28;20617;-25
2021/03/03 11:06:28;;;;;;;10.93;7.23;;;20.00;42.90;;;;;;10398343;28;20225;-25
2021/03/03 11:11:51;;;;;;;13.30;7.50;;;19.90;43.20;;;;;;10411137;28;20608;-27
2021/03/03 11:17:13;;;;;;;12.43;7.03;;;19.80;43.30;;;;;;10411327;28;20228;-27
2021/03/03 11:22:35;;;;;;;12.73;8.07;;;19.70;43.30;;;;;;10411475;28;20228;-26
2021/03/03 11:27:57;;;;;;;12.90;8.33;;;19.60;43.10;;;;;;10411576;28;20762;-25
2021/03/03 11:33:19;;;;;;;14.33;8.73;;;19.50;43.10;;;;;;10409433;28;20213;-26
2021/03/03 11:38:42;;;;;;;13.63;8.20;;;19.50;43.20;;;;;;10410588;28;20233;-25
2021/03/03 11:44:06;;;;;;;11.50;8.37;;;19.40;43.30;;;;;;10409332;28;20190;-25
2021/03/03 11:49:27;;;;;;;13.30;8.77;;;19.30;43.40;;;;;;10409485;28;20747;-25
2021/03/03 11:54:50;;;;;;;15.03;9.40;;;19.30;43.20;;;;;;10410112;28;20248;-26
2021/03/03 12:00:13;;;;;;;12.80;8.50;;;19.30;43.60;;;;;;10409912;28;20212;-26
2021/03/03 12:05:35;;;;;;;13.77;8.60;;;19.30;43.60;;;;;;10408384;28;20221;-26
2021/03/03 12:10:58;;;;;;;15.37;9.23;;;19.30;43.80;;;;;;10410288;28;20219;-26
2021/03/03 12:16:20;;;;;;;13.93;8.40;;;19.30;43.90;;;;;;10410377;28;20232;-26
2021/03/03 12:21:41;;;;;;;17.13;10.00;;;19.30;43.90;;;;;;10410142;28;20193;-26
2021/03/03 12:27:04;;;;;;;16.00;10.13;;;19.30;43.90;;;;;;10410860;28;20293;-25
2021/03/03 12:32:26;;;;;;;19.80;9.67;;;19.30;44.30;;;;;;10409275;28;20217;-27
2021/03/03 12:37:47;;;;;;;12.40;8.53;;;19.30;44.10;;;;;;10420021;28;20225;-26
2021/03/03 12:43:10;;;;;;;13.30;8.03;;;19.30;44.50;;;;;;10378770;28;20692;-26
2021/03/03 12:48:32;;;;;;;13.67;8.53;;;19.30;45.00;;;;;;10403349;28;20239;-26
2021/03/03 12:53:53;;;;;;;14.90;8.30;;;19.30;45.10;;;;;;10408210;28;20352;-25
2021/03/03 12:59:16;;;;;;;14.57;9.73;;;19.30;45.20;;;;;;10379361;28;20225;-25
2021/03/03 13:04:37;;;;;;;13.30;8.03;;;19.30;45.20;;;;;;10406188;28;20627;-26
2021/03/03 13:09:59;;;;;;;14.03;8.10;;;19.30;45.70;;;;;;10408573;28;20209;-25
2021/03/03 13:15:22;;;;;;;13.90;8.57;;;19.30;45.30;;;;;;10414271;28;20723;-26
2021/03/03 13:20:43;;;;;;;15.67;8.60;;;19.40;45.50;;;;;;10426443;28;20225;-23
2021/03/03 13:26:05;;;;;;;14.70;9.03;;;19.40;45.60;;;;;;10422243;28;20711;-24
2021/03/03 13:31:28;;;;;;;12.80;8.70;;;19.40;45.60;;;;;;10414352;28;20198;-25
2021/03/03 13:36:50;;;;;;;14.13;9.07;;;19.30;45.30;;;;;;10415289;28;20222;-25
2021/03/03 13:42:12;;;;;;;19.43;9.53;;;19.30;45.60;;;;;;10415215;28;20236;-22
2021/03/03 13:47:35;;;;;;;17.20;10.13;;;19.30;45.60;;;;;;10414930;28;20591;-25
2021/03/03 13:52:56;;;;;;;14.00;9.47;;;19.30;45.40;;;;;;10414411;28;20233;-24
2021/03/03 13:58:18;;;;;;;13.43;9.43;;;19.30;45.40;;;;;;10414977;28;20221;-26
2021/03/03 14:03:40;;;;;;;16.30;10.63;;;19.30;45.50;;;;;;10414630;28;20194;-23
2021/03/03 14:09:03;;;;;;;19.23;11.13;;;19.30;45.50;;;;;;10413746;28;20711;-24
2021/03/03 14:14:25;;;;;;;19.23;11.70;;;19.30;45.40;;;;;;10413485;28;20213;-23
2021/03/03 14:19:49;;;;;;;18.20;12.07;;;19.30;45.40;;;;;;10410328;28;20445;-24
2021/03/03 14:25:12;;;;;;;17.07;11.07;;;20.20;43.50;;;;;;10411637;28;20401;-24
2021/03/03 14:30:33;;;;;;;16.87;11.03;;;19.60;44.80;;;;;;10412588;28;20199;-21
2021/03/03 14:35:56;;;;;;;20.17;10.60;;;19.40;45.40;;;;;;10411700;28;20221;-23
2021/03/03 14:41:18;;;;;;;23.20;11.90;;;19.30;45.70;;;;;;10371044;28;20214;-24
2021/03/03 14:46:39;;;;;;;14.17;10.53;;;19.30;45.70;;;;;;10405081;28;20237;-23
2021/03/03 14:52:02;;;;;;;13.40;9.00;;;19.20;46.00;;;;;;10375433;28;20681;-23
2021/03/03 14:57:23;;;;;;;17.97;11.50;;;19.30;46.20;;;;;;10389872;28;20596;-24
2021/03/03 15:02:45;;;;;;;18.60;12.03;;;19.20;46.10;;;;;;10411642;28;20190;-24
2021/03/03 15:08:07;;;;;;;20.47;13.10;;;19.20;46.30;;;;;;10402914;28;20252;-23
2021/03/03 15:13:29;;;;;;;18.57;12.50;;;19.10;46.20;;;;;;10412261;28;20237;-23
2021/03/03 15:18:51;;;;;;;21.77;12.87;;;19.10;46.30;;;;;;10411625;28;20248;-24
2021/03/03 15:24:13;;;;;;;18.93;12.07;;;19.00;46.50;;;;;;10410749;28;20197;-25
2021/03/03 15:29:35;;;;;;;24.03;13.13;;;19.00;46.60;;;;;;10410555;28;20229;-25
2021/03/03 15:34:56;;;;;;;21.83;13.77;;;19.00;46.80;;;;;;10409481;28;20222;-24
2021/03/03 15:40:19;;;;;;;23.57;15.63;;;19.10;47.00;;;;;;10409223;28;20689;-25
2021/03/03 15:45:41;;;;;;;24.87;15.57;;;19.10;47.30;;;;;;10410500;28;20225;-24
2021/03/03 15:51:03;;;;;;;18.60;13.77;;;19.00;47.10;;;;;;10373088;28;20209;-25
2021/03/03 15:56:25;;;;;;;19.13;14.30;;;19.00;47.20;;;;;;10409012;28;20688;-24
2021/03/03 16:01:47;;;;;;;22.93;15.03;;;19.00;47.00;;;;;;10408615;28;20214;-24
2021/03/03 16:07:09;;;;;;;20.50;14.00;;;19.00;46.90;;;;;;10409104;28;20209;-24
2021/03/03 16:12:31;;;;;;;22.23;14.57;;;19.00;47.00;;;;;;10408466;28;20221;-22
2021/03/03 16:17:53;;;;;;;21.53;16.60;;;19.00;46.40;;;;;;10406579;28;20446;-24
2021/03/03 16:23:14;;;;;;;20.77;15.40;;;19.50;45.10;;;;;;10408272;28;20217;-23
2021/03/03 16:28:37;;;;;;;23.50;15.33;;;19.10;45.50;;;;;;10440292;28;20224;-21
2021/03/03 16:33:59;;;;;;;21.30;15.57;;;19.10;45.30;;;;;;10419887;28;20588;-24
2021/03/03 16:39:20;;;;;;;22.83;16.47;;;19.00;45.10;;;;;;10408497;28;20228;-24
2021/03/03 16:44:43;;;;;;;23.23;15.83;;;18.90;45.10;;;;;;10406481;28;20205;-22
2021/03/03 16:50:07;;;;;;;26.13;17.10;;;19.00;45.40;;;;;;10408249;28;20217;-24
2021/03/03 17:12:57;;;;;;;27.33;20.27;;;18.70;45.50;;;;;;10422816;28;20232;-24
2021/03/03 18:09:42;;;;;;;31.03;21.73;;;18.70;45.90;;;;;;10411108;28;20705;-24
2021/03/03 18:15:06;;;;;;;21.07;15.10;;;18.90;46.50;;;;;;10418909;28;20209;-24
2021/03/03 18:20:27;;;;;;;20.37;12.60;;;19.20;47.10;;;;;;10453708;28;20203;-25
2021/03/03 18:25:50;;;;;;;19.07;10.93;;;19.50;47.50;;;;;;10438144;28;20573;-24
2021/03/03 18:31:12;;;;;;;17.03;10.67;;;19.70;47.40;;;;;;10413017;28;20201;-25
2021/03/03 18:36:34;;;;;;;19.20;11.10;;;19.80;47.40;;;;;;10410544;28;20699;-25
2021/03/03 18:41:57;;;;;;;20.97;10.63;;;19.80;47.70;;;;;;10412174;28;20200;-24
2021/03/03 18:47:19;;;;;;;18.67;10.57;;;19.80;48.10;;;;;;10403796;28;20296;-25
2021/03/03 18:52:41;;;;;;;19.57;11.27;;;19.70;48.40;;;;;;10410983;28;20201;-26
2021/03/03 18:58:04;;;;;;;16.83;10.67;;;19.50;48.70;;;;;;10412806;28;20250;-25
2021/03/03 19:03:25;;;;;;;18.73;10.63;;;19.30;49.00;;;;;;10413640;28;20257;-25
2021/03/03 19:08:48;;;;;;;16.77;11.93;;;19.30;49.10;;;;;;10408276;28;20222;-27
2021/03/03 19:14:10;;;;;;;17.47;11.47;;;19.30;49.20;;;;;;10405984;28;20213;-24
2021/03/03 19:19:33;;;;;;;16.10;11.13;;;19.20;49.50;;;;;;10410560;28;20222;-26
2021/03/03 19:24:54;;;;;;;14.47;10.13;;;19.30;49.60;;;;;;10451971;23;20226;-28
2021/03/03 19:30:18;;;;;;;13.53;9.43;;;19.20;49.70;;;;;;10445825;28;20267;-28
2021/03/03 19:35:40;;;;;;;15.57;10.43;;;19.20;50.40;;;;;;10413512;28;20589;-32
2021/03/03 19:41:03;;;;;;;14.00;9.67;;;19.20;49.90;;;;;;10409199;28;20209;-30
2021/03/03 19:46:26;;;;;;;13.87;10.03;;;19.30;50.10;;;;;;10409491;28;20193;-29
2021/03/03 19:51:47;;;;;;;12.90;9.90;;;19.20;50.10;;;;;;10410335;28;20228;-30
2021/03/03 19:57:11;;;;;;;10.17;7.23;;;19.20;50.20;;;;;;10409277;28;20229;-31
2021/03/03 20:02:33;;;;;;;9.50;7.37;;;19.20;50.10;;;;;;10408718;28;20231;-29
2021/03/03 20:07:55;;;;;;;9.23;7.17;;;19.70;49.40;;;;;;10408518;28;20194;-27
2021/03/03 20:13:16;;;;;;;10.60;7.23;;;20.00;48.70;;;;;;10407450;28;20213;-28
2021/03/03 20:18:39;;;;;;;8.37;6.67;;;20.30;48.20;;;;;;10405301;28;20204;-27
2021/03/03 20:24:00;;;;;;;10.67;7.07;;;20.50;47.80;;;;;;10409634;28;20775;-30
2021/03/03 20:29:22;;;;;;;9.40;7.03;;;20.70;47.60;;;;;;10420452;28;20204;-30
2021/03/03 20:34:45;;;;;;;8.40;7.00;;;20.80;47.30;;;;;;10416558;28;20230;-30
2021/03/03 20:40:08;;;;;;;8.67;6.37;;;20.90;47.30;;;;;;10415880;28;20197;-31
2021/03/03 20:45:30;;;;;;;9.30;6.70;;;21.00;47.20;;;;;;10416394;28;20692;-30
2021/03/03 20:50:52;;;;;;;9.00;6.87;;;21.10;47.10;;;;;;10415395;28;20194;-34
2021/03/03 20:56:14;;;;;;;6.87;5.47;;;21.10;47.00;;;;;;10395257;28;20226;-27
2021/03/03 21:01:35;;;;;;;7.33;6.53;;;21.20;46.90;;;;;;10399091;28;20697;-28
2021/03/03 21:06:58;;;;;;;8.23;6.10;;;21.20;46.90;;;;;;10398161;28;20546;-31
2021/03/03 21:12:20;;;;;;;7.10;5.87;;;21.30;47.00;;;;;;10408644;28;20217;-27
2021/03/03 21:17:41;;;;;;;6.13;4.97;;;21.20;47.00;;;;;;10416419;28;20236;-28
2021/03/03 21:23:04;;;;;;;7.57;5.37;;;21.30;47.00;;;;;;10415684;28;20229;-30
2021/03/03 21:28:26;;;;;;;8.03;5.50;;;21.40;46.90;;;;;;10374385;28;20609;-27
2021/03/03 21:33:47;;;;;;;8.87;6.60;;;21.40;46.90;;;;;;10416521;28;20229;-30
2021/03/03 21:39:10;;;;;;;7.90;6.57;;;21.50;47.00;;;;;;10415322;28;20205;-30
2021/03/03 21:44:31;;;;;;;8.67;6.23;;;21.50;46.90;;;;;;10415121;28;20284;-30
2021/03/03 21:49:53;;;;;;;7.83;6.57;;;21.50;46.90;;;;;;10413907;28;20280;-33
2021/03/03 21:55:16;;;;;;;8.07;5.77;;;21.40;47.00;;;;;;10415188;28;20217;-28
2021/03/03 22:00:38;;;;;;;6.97;5.67;;;21.50;47.10;;;;;;10400408;28;20895;-29
2021/03/03 22:05:59;;;;;;;6.90;5.43;;;21.50;47.00;;;;;;10396828;28;20225;-28
2021/03/03 22:11:24;;;;;;;6.57;5.17;;;21.60;47.60;;;;;;10414779;28;20205;-31
2021/03/03 22:16:45;;;;;;;6.80;6.07;;;21.60;46.80;;;;;;10413423;28;20245;-29
2021/03/03 22:22:07;;;;;;;6.60;5.03;;;21.70;47.00;;;;;;10413113;28;20283;-32
2021/03/03 22:27:30;;;;;;;7.53;5.57;;;21.70;47.00;;;;;;10414089;28;20193;-28
2021/03/03 22:32:51;;;;;;;6.77;5.63;;;21.70;46.80;;;;;;10413883;28;20228;-31
2021/03/03 22:38:13;;;;;;;8.17;6.00;;;21.70;46.70;;;;;;10413857;28;20206;-32
2021/03/03 22:43:35;;;;;;;6.10;5.50;;;21.70;46.60;;;;;;10413006;28;20252;-30
2021/03/03 22:48:57;;;;;;;7.73;5.80;;;21.80;46.60;;;;;;10404479;28;20210;-28
2021/03/03 22:54:19;;;;;;;6.13;5.13;;;21.80;46.50;;;;;;10412657;28;20655;-31
2021/03/03 22:59:41;;;;;;;8.27;6.47;;;21.80;46.40;;;;;;10406821;28;20249;-30
2021/03/03 23:05:03;;;;;;;9.37;6.63;;;21.60;46.50;;;;;;10387981;28;20652;-29
2021/03/03 23:10:25;;;;;;;7.87;7.07;;;21.20;47.00;;;;;;10392445;28;20545;-29
2021/03/03 23:15:47;;;;;;;8.97;7.30;;;21.10;47.40;;;;;;10409122;28;20221;-29
2021/03/03 23:21:09;;;;;;;9.10;7.30;;;20.70;48.20;;;;;;10410935;28;20692;-32
2021/03/03 23:26:31;;;;;;;11.23;7.60;;;20.40;48.60;;;;;;10411209;28;20232;-31
2021/03/03 23:31:53;;;;;;;8.60;6.53;;;20.20;49.10;;;;;;10410997;28;20217;-28
2021/03/03 23:37:15;;;;;;;8.10;6.90;;;20.10;49.40;;;;;;10411291;28;20693;-33
2021/03/03 23:42:36;;;;;;;8.17;7.03;;;19.90;49.60;;;;;;10409636;28;20588;-32
2021/03/03 23:48:00;;;;;;;6.77;6.07;;;19.80;49.80;;;;;;10411040;28;20690;-29
2021/03/03 23:53:23;;;;;;;7.70;6.23;;;19.70;49.90;;;;;;10410356;28;20306;-30
2021/03/03 23:58:44;;;;;;;7.50;6.37;;;19.70;50.00;;;;;;10409706;28;20201;-32
